sensor_id;sensor_type;location;lat;lon;timestamp;temperature;humidity
37478;DHT22;23334;54.316;10.182;2022-09-02T00:01:40;8.60;99.90
37478;DHT22;23334;54.316;10.182;2022-09-02T00:04:09;8.60;99.90
37478;DHT22;23334;54.316;10.182;2022-09-02T00:06:39;8.50;99.90
37478;DHT22;23334;54.316;10.182;2022-09-02T00:09:07;8.60;99.90
37478;DHT22;23334;54.316;10.182;2022-09-02T00:11:34;8.40;99.90
37478;DHT22;23334;54.316;10.182;2022-09-02T00:14:02;8.50;99.90
37478;DHT22;23334;54.316;10.182;2022-09-02T00:16:29;8.50;99.90
37478;DHT22;23334;54.316;10.182;2022-09-02T00:18:56;11.10;99.90
37478;DHT22;23334;54.316;10.182;2022-09-02T00:21:22;9.40;99.90
37478;DHT22;23334;54.316;10.182;2022-09-02T00:23:48;8.40;99.90
37478;DHT22;23334;54.316;10.182;2022-09-02T00:26:14;8.40;99.90
37478;DHT22;23334;54.316;10.182;2022-09-02T00:28:41;8.40;99.90
37478;DHT22;23334;54.316;10.182;2022-09-02T00:31:07;8.30;99.90
37478;DHT22;23334;54.316;10.182;2022-09-02T00:33:33;8.30;99.90
37478;DHT22;23334;54.316;10.182;2022-09-02T00:36:01;8.30;99.90
37478;DHT22;23334;54.316;10.182;2022-09-02T00:38:28;8.20;99.90
37478;DHT22;23334;54.316;10.182;2022-09-02T00:40:54;8.10;99.90
37478;DHT22;23334;54.316;10.182;2022-09-02T00:43:47;8.10;99.90
37478;DHT22;23334;54.316;10.182;2022-09-02T00:46:15;8.10;99.90
37478;DHT22;23334;54.316;10.182;2022-09-02T00:48:45;8.10;99.90
37478;DHT22;23334;54.316;10.182;2022-09-02T00:51:12;8.10;99.90
37478;DHT22;23334;54.316;10.182;2022-09-02T00:53:41;8.00;99.90
37478;DHT22;23334;54.316;10.182;2022-09-02T00:56:12;8.00;99.90
37478;DHT22;23334;54.316;10.182;2022-09-02T00:58:38;7.90;99.90
37478;DHT22;23334;54.316;10.182;2022-09-02T01:01:05;7.90;99.90
37478;DHT22;23334;54.316;10.182;2022-09-02T01:03:32;7.80;99.90
37478;DHT22;23334;54.316;10.182;2022-09-02T01:05:59;7.80;99.90
37478;DHT22;23334;54.316;10.182;2022-09-02T01:08:30;7.80;99.90
37478;DHT22;23334;54.316;10.182;2022-09-02T01:10:59;7.60;99.90
37478;DHT22;23334;54.316;10.182;2022-09-02T01:13:29;7.60;99.90
37478;DHT22;23334;54.316;10.182;2022-09-02T01:16:07;7.70;99.90
37478;DHT22;23334;54.316;10.182;2022-09-02T01:18:36;7.70;99.90
37478;DHT22;23334;54.316;10.182;2022-09-02T01:21:02;7.50;99.90
37478;DHT22;23334;54.316;10.182;2022-09-02T01:23:29;7.50;99.90
37478;DHT22;23334;54.316;10.182;2022-09-02T01:25:56;7.60;99.90
37478;DHT22;23334;54.316;10.182;2022-09-02T01:28:22;7.50;99.90
37478;DHT22;23334;54.316;10.182;2022-09-02T01:30:52;7.60;99.90
37478;DHT22;23334;54.316;10.182;2022-09-02T01:33:19;7.60;99.90
37478;DHT22;23334;54.316;10.182;2022-09-02T01:35:45;7.50;99.90
37478;DHT22;23334;54.316;10.182;2022-09-02T01:38:11;7.50;99.90
37478;DHT22;23334;54.316;10.182;2022-09-02T01:40:37;7.50;99.90
37478;DHT22;23334;54.316;10.182;2022-09-02T01:43:10;7.50;99.90
37478;DHT22;23334;54.316;10.182;2022-09-02T01:45:39;7.50;99.90
37478;DHT22;23334;54.316;10.182;2022-09-02T01:48:07;7.50;99.90
37478;DHT22;23334;54.316;10.182;2022-09-02T01:50:40;7.50;99.90
37478;DHT22;23334;54.316;10.182;2022-09-02T01:53:07;7.50;99.90
37478;DHT22;23334;54.316;10.182;2022-09-02T01:55:33;7.40;99.90
37478;DHT22;23334;54.316;10.182;2022-09-02T01:57:59;7.40;99.90
37478;DHT22;23334;54.316;10.182;2022-09-02T02:00:25;7.30;99.90
37478;DHT22;23334;54.316;10.182;2022-09-02T02:02:53;7.30;99.90
37478;DHT22;23334;54.316;10.182;2022-09-02T02:05:19;7.40;99.90
37478;DHT22;23334;54.316;10.182;2022-09-02T02:07:45;7.30;99.90
37478;DHT22;23334;54.316;10.182;2022-09-02T02:10:13;7.20;99.90
37478;DHT22;23334;54.316;10.182;2022-09-02T02:12:40;7.20;99.90
37478;DHT22;23334;54.316;10.182;2022-09-02T02:15:11;7.20;99.90
37478;DHT22;23334;54.316;10.182;2022-09-02T02:17:37;7.30;99.90
37478;DHT22;23334;54.316;10.182;2022-09-02T02:20:04;7.20;99.90
37478;DHT22;23334;54.316;10.182;2022-09-02T02:22:30;7.20;99.90
37478;DHT22;23334;54.316;10.182;2022-09-02T02:24:56;7.20;99.90
37478;DHT22;23334;54.316;10.182;2022-09-02T02:27:21;7.10;99.90
37478;DHT22;23334;54.316;10.182;2022-09-02T02:29:47;7.10;99.90
37478;DHT22;23334;54.316;10.182;2022-09-02T02:32:13;7.10;99.90
37478;DHT22;23334;54.316;10.182;2022-09-02T02:34:38;6.90;99.90
37478;DHT22;23334;54.316;10.182;2022-09-02T02:37:04;7.00;99.90
37478;DHT22;23334;54.316;10.182;2022-09-02T02:39:30;7.00;99.90
37478;DHT22;23334;54.316;10.182;2022-09-02T02:41:56;6.90;99.90
37478;DHT22;23334;54.316;10.182;2022-09-02T02:44:21;7.00;99.90
37478;DHT22;23334;54.316;10.182;2022-09-02T02:46:48;6.90;99.90
37478;DHT22;23334;54.316;10.182;2022-09-02T02:49:13;6.90;99.90
37478;DHT22;23334;54.316;10.182;2022-09-02T02:51:39;6.90;99.90
37478;DHT22;23334;54.316;10.182;2022-09-02T02:54:05;6.90;99.90
37478;DHT22;23334;54.316;10.182;2022-09-02T02:56:30;6.80;99.90
37478;DHT22;23334;54.316;10.182;2022-09-02T02:58:58;6.90;99.90
37478;DHT22;23334;54.316;10.182;2022-09-02T03:01:27;6.90;99.90
37478;DHT22;23334;54.316;10.182;2022-09-02T03:03:53;6.90;99.90
37478;DHT22;23334;54.316;10.182;2022-09-02T03:06:18;6.90;99.90
37478;DHT22;23334;54.316;10.182;2022-09-02T03:08:44;6.80;99.90
37478;DHT22;23334;54.316;10.182;2022-09-02T03:11:13;6.80;99.90
37478;DHT22;23334;54.316;10.182;2022-09-02T03:13:39;6.80;99.90
37478;DHT22;23334;54.316;10.182;2022-09-02T03:16:05;6.80;99.90
37478;DHT22;23334;54.316;10.182;2022-09-02T03:18:31;6.80;99.90
37478;DHT22;23334;54.316;10.182;2022-09-02T03:20:58;6.80;99.90
37478;DHT22;23334;54.316;10.182;2022-09-02T03:23:24;6.70;99.90
37478;DHT22;23334;54.316;10.182;2022-09-02T03:25:50;6.60;99.90
37478;DHT22;23334;54.316;10.182;2022-09-02T03:28:16;6.70;99.90
37478;DHT22;23334;54.316;10.182;2022-09-02T03:30:43;6.60;99.90
37478;DHT22;23334;54.316;10.182;2022-09-02T03:33:09;6.50;99.90
37478;DHT22;23334;54.316;10.182;2022-09-02T03:35:39;6.60;99.90
37478;DHT22;23334;54.316;10.182;2022-09-02T03:38:05;6.50;99.90
37478;DHT22;23334;54.316;10.182;2022-09-02T03:40:30;6.50;99.90
37478;DHT22;23334;54.316;10.182;2022-09-02T03:42:57;6.60;99.90
37478;DHT22;23334;54.316;10.182;2022-09-02T03:45:23;6.50;99.90
37478;DHT22;23334;54.316;10.182;2022-09-02T03:47:49;6.50;99.90
37478;DHT22;23334;54.316;10.182;2022-09-02T03:50:24;6.50;99.90
37478;DHT22;23334;54.316;10.182;2022-09-02T03:52:51;6.20;99.90
37478;DHT22;23334;54.316;10.182;2022-09-02T03:55:17;6.60;99.90
37478;DHT22;23334;54.316;10.182;2022-09-02T03:57:43;7.30;99.90
37478;DHT22;23334;54.316;10.182;2022-09-02T04:00:10;6.60;99.90
37478;DHT22;23334;54.316;10.182;2022-09-02T04:02:36;6.60;99.90
37478;DHT22;23334;54.316;10.182;2022-09-02T04:05:01;6.50;99.90
37478;DHT22;23334;54.316;10.182;2022-09-02T04:07:27;6.20;99.90
37478;DHT22;23334;54.316;10.182;2022-09-02T04:09:54;6.60;99.90
37478;DHT22;23334;54.316;10.182;2022-09-02T04:12:21;6.50;99.90
37478;DHT22;23334;54.316;10.182;2022-09-02T04:14:47;6.60;99.90
37478;DHT22;23334;54.316;10.182;2022-09-02T04:17:12;6.50;99.90
37478;DHT22;23334;54.316;10.182;2022-09-02T04:19:38;6.60;99.90
37478;DHT22;23334;54.316;10.182;2022-09-02T04:22:05;6.60;99.90
37478;DHT22;23334;54.316;10.182;2022-09-02T04:24:31;6.50;99.90
37478;DHT22;23334;54.316;10.182;2022-09-02T04:26:56;6.50;99.90
37478;DHT22;23334;54.316;10.182;2022-09-02T04:29:22;6.60;99.90
37478;DHT22;23334;54.316;10.182;2022-09-02T04:31:49;6.40;99.90
37478;DHT22;23334;54.316;10.182;2022-09-02T04:34:15;6.50;99.90
37478;DHT22;23334;54.316;10.182;2022-09-02T04:36:40;6.50;99.90
37478;DHT22;23334;54.316;10.182;2022-09-02T04:39:06;6.50;99.90
37478;DHT22;23334;54.316;10.182;2022-09-02T04:41:34;6.50;99.90
37478;DHT22;23334;54.316;10.182;2022-09-02T04:44:00;6.60;99.90
37478;DHT22;23334;54.316;10.182;2022-09-02T04:46:26;6.60;99.90
37478;DHT22;23334;54.316;10.182;2022-09-02T04:48:52;6.60;99.90
37478;DHT22;23334;54.316;10.182;2022-09-02T04:51:21;6.60;99.90
37478;DHT22;23334;54.316;10.182;2022-09-02T04:53:48;6.60;99.90
37478;DHT22;23334;54.316;10.182;2022-09-02T04:56:17;6.60;99.90
37478;DHT22;23334;54.316;10.182;2022-09-02T04:58:44;7.20;99.90
37478;DHT22;23334;54.316;10.182;2022-09-02T05:01:15;6.70;99.90
37478;DHT22;23334;54.316;10.182;2022-09-02T05:03:43;6.80;99.90
37478;DHT22;23334;54.316;10.182;2022-09-02T05:06:11;6.80;99.90
37478;DHT22;23334;54.316;10.182;2022-09-02T05:08:37;6.70;99.90
37478;DHT22;23334;54.316;10.182;2022-09-02T05:11:07;6.80;99.90
37478;DHT22;23334;54.316;10.182;2022-09-02T05:13:32;6.90;99.90
37478;DHT22;23334;54.316;10.182;2022-09-02T05:15:58;6.90;99.90
37478;DHT22;23334;54.316;10.182;2022-09-02T05:18:24;6.90;99.90
37478;DHT22;23334;54.316;10.182;2022-09-02T05:20:49;6.90;99.90
37478;DHT22;23334;54.316;10.182;2022-09-02T05:23:15;7.00;99.90
37478;DHT22;23334;54.316;10.182;2022-09-02T05:25:42;7.10;99.90
37478;DHT22;23334;54.316;10.182;2022-09-02T05:28:09;7.20;99.90
37478;DHT22;23334;54.316;10.182;2022-09-02T05:30:37;7.20;99.90
37478;DHT22;23334;54.316;10.182;2022-09-02T05:33:04;7.00;99.90
37478;DHT22;23334;54.316;10.182;2022-09-02T05:35:31;6.80;99.90
37478;DHT22;23334;54.316;10.182;2022-09-02T05:37:57;7.40;99.90
37478;DHT22;23334;54.316;10.182;2022-09-02T05:40:22;7.60;99.90
37478;DHT22;23334;54.316;10.182;2022-09-02T05:42:48;7.60;99.90
37478;DHT22;23334;54.316;10.182;2022-09-02T05:45:14;7.50;99.90
37478;DHT22;23334;54.316;10.182;2022-09-02T05:47:39;7.90;99.90
37478;DHT22;23334;54.316;10.182;2022-09-02T05:50:05;7.80;99.90
37478;DHT22;23334;54.316;10.182;2022-09-02T05:52:33;8.10;99.90
37478;DHT22;23334;54.316;10.182;2022-09-02T05:54:58;8.30;99.90
37478;DHT22;23334;54.316;10.182;2022-09-02T05:57:26;8.00;99.90
37478;DHT22;23334;54.316;10.182;2022-09-02T05:59:52;8.60;99.90
37478;DHT22;23334;54.316;10.182;2022-09-02T06:02:22;9.40;99.90
37478;DHT22;23334;54.316;10.182;2022-09-02T06:04:50;11.20;99.90
37478;DHT22;23334;54.316;10.182;2022-09-02T06:07:18;12.50;99.90
37478;DHT22;23334;54.316;10.182;2022-09-02T06:09:46;13.90;99.90
37478;DHT22;23334;54.316;10.182;2022-09-02T06:12:12;14.90;99.90
37478;DHT22;23334;54.316;10.182;2022-09-02T06:14:39;15.70;99.90
37478;DHT22;23334;54.316;10.182;2022-09-02T06:17:05;16.40;99.90
37478;DHT22;23334;54.316;10.182;2022-09-02T06:19:31;17.10;99.90
37478;DHT22;23334;54.316;10.182;2022-09-02T06:21:59;17.40;99.90
37478;DHT22;23334;54.316;10.182;2022-09-02T06:24:26;17.60;99.90
37478;DHT22;23334;54.316;10.182;2022-09-02T06:26:52;17.10;99.90
37478;DHT22;23334;54.316;10.182;2022-09-02T06:29:19;15.90;99.90
37478;DHT22;23334;54.316;10.182;2022-09-02T06:31:48;15.90;99.90
37478;DHT22;23334;54.316;10.182;2022-09-02T06:34:17;15.40;99.90
37478;DHT22;23334;54.316;10.182;2022-09-02T06:36:45;14.90;99.90
37478;DHT22;23334;54.316;10.182;2022-09-02T06:39:15;15.00;99.90
37478;DHT22;23334;54.316;10.182;2022-09-02T06:41:42;14.70;99.90
37478;DHT22;23334;54.316;10.182;2022-09-02T06:44:12;15.60;99.90
37478;DHT22;23334;54.316;10.182;2022-09-02T06:46:40;16.90;99.90
37478;DHT22;23334;54.316;10.182;2022-09-02T06:49:09;18.90;99.90
37478;DHT22;23334;54.316;10.182;2022-09-02T06:51:38;19.00;99.90
37478;DHT22;23334;54.316;10.182;2022-09-02T06:54:05;19.50;99.90
37478;DHT22;23334;54.316;10.182;2022-09-02T06:56:32;20.00;99.90
37478;DHT22;23334;54.316;10.182;2022-09-02T06:58:58;18.80;99.90
37478;DHT22;23334;54.316;10.182;2022-09-02T07:01:27;19.10;99.90
37478;DHT22;23334;54.316;10.182;2022-09-02T07:03:53;18.70;99.90
37478;DHT22;23334;54.316;10.182;2022-09-02T07:06:40;19.30;99.90
37478;DHT22;23334;54.316;10.182;2022-09-02T07:09:08;20.50;99.90
37478;DHT22;23334;54.316;10.182;2022-09-02T07:11:35;20.40;99.90
37478;DHT22;23334;54.316;10.182;2022-09-02T07:14:01;20.90;99.90
37478;DHT22;23334;54.316;10.182;2022-09-02T07:16:28;21.20;99.90
37478;DHT22;23334;54.316;10.182;2022-09-02T07:18:55;22.10;99.90
37478;DHT22;23334;54.316;10.182;2022-09-02T07:21:21;22.70;99.90
37478;DHT22;23334;54.316;10.182;2022-09-02T07:23:47;24.10;99.90
37478;DHT22;23334;54.316;10.182;2022-09-02T07:26:14;24.60;99.90
37478;DHT22;23334;54.316;10.182;2022-09-02T07:28:40;25.40;99.90
37478;DHT22;23334;54.316;10.182;2022-09-02T07:31:12;27.00;99.90
37478;DHT22;23334;54.316;10.182;2022-09-02T07:33:38;27.50;99.90
37478;DHT22;23334;54.316;10.182;2022-09-02T07:36:05;28.40;96.60
37478;DHT22;23334;54.316;10.182;2022-09-02T07:38:32;29.20;96.60
37478;DHT22;23334;54.316;10.182;2022-09-02T07:40:59;29.40;83.50
37478;DHT22;23334;54.316;10.182;2022-09-02T07:43:27;30.00;83.30
37478;DHT22;23334;54.316;10.182;2022-09-02T07:45:53;30.10;74.00
37478;DHT22;23334;54.316;10.182;2022-09-02T07:48:23;30.50;66.30
37478;DHT22;23334;54.316;10.182;2022-09-02T07:50:50;30.60;71.10
37478;DHT22;23334;54.316;10.182;2022-09-02T07:53:18;30.50;73.50
37478;DHT22;23334;54.316;10.182;2022-09-02T07:55:44;31.30;59.20
37478;DHT22;23334;54.316;10.182;2022-09-02T07:58:12;32.00;71.90
37478;DHT22;23334;54.316;10.182;2022-09-02T08:00:39;31.60;74.60
37478;DHT22;23334;54.316;10.182;2022-09-02T08:03:08;32.00;70.60
37478;DHT22;23334;54.316;10.182;2022-09-02T08:05:36;32.70;68.90
37478;DHT22;23334;54.316;10.182;2022-09-02T08:08:02;33.40;58.10
37478;DHT22;23334;54.316;10.182;2022-09-02T08:10:29;33.20;65.50
37478;DHT22;23334;54.316;10.182;2022-09-02T08:12:56;33.30;67.80
37478;DHT22;23334;54.316;10.182;2022-09-02T08:15:23;33.60;60.50
37478;DHT22;23334;54.316;10.182;2022-09-02T08:17:49;34.70;63.00
37478;DHT22;23334;54.316;10.182;2022-09-02T08:20:16;33.70;52.00
37478;DHT22;23334;54.316;10.182;2022-09-02T08:25:09;34.50;57.70
37478;DHT22;23334;54.316;10.182;2022-09-02T08:27:35;33.70;58.20
37478;DHT22;23334;54.316;10.182;2022-09-02T08:30:01;34.00;50.90
37478;DHT22;23334;54.316;10.182;2022-09-02T08:32:28;34.00;46.60
37478;DHT22;23334;54.316;10.182;2022-09-02T08:34:53;34.30;46.00
37478;DHT22;23334;54.316;10.182;2022-09-02T08:37:20;34.90;43.30
37478;DHT22;23334;54.316;10.182;2022-09-02T08:39:47;35.40;46.30
37478;DHT22;23334;54.316;10.182;2022-09-02T08:42:28;34.60;40.40
37478;DHT22;23334;54.316;10.182;2022-09-02T08:44:59;35.50;48.10
37478;DHT22;23334;54.316;10.182;2022-09-02T08:47:29;36.10;34.80
37478;DHT22;23334;54.316;10.182;2022-09-02T08:49:58;35.00;34.90
37478;DHT22;23334;54.316;10.182;2022-09-02T08:52:45;35.80;33.40
37478;DHT22;23334;54.316;10.182;2022-09-02T08:55:21;36.10;36.20
37478;DHT22;23334;54.316;10.182;2022-09-02T08:57:49;35.00;47.70
37478;DHT22;23334;54.316;10.182;2022-09-02T09:00:15;35.10;39.30
37478;DHT22;23334;54.316;10.182;2022-09-02T09:02:51;35.40;44.50
37478;DHT22;23334;54.316;10.182;2022-09-02T09:08:13;36.00;54.30
37478;DHT22;23334;54.316;10.182;2022-09-02T09:13:55;36.10;53.80
37478;DHT22;23334;54.316;10.182;2022-09-02T09:21:48;36.20;47.20
37478;DHT22;23334;54.316;10.182;2022-09-02T09:24:25;36.50;47.40
37478;DHT22;23334;54.316;10.182;2022-09-02T09:26:53;36.40;44.10
37478;DHT22;23334;54.316;10.182;2022-09-02T09:29:21;36.70;39.80
37478;DHT22;23334;54.316;10.182;2022-09-02T09:31:53;35.30;38.50
37478;DHT22;23334;54.316;10.182;2022-09-02T09:34:20;34.60;39.90
37478;DHT22;23334;54.316;10.182;2022-09-02T09:36:51;33.30;42.10
37478;DHT22;23334;54.316;10.182;2022-09-02T09:39:30;33.60;52.10
37478;DHT22;23334;54.316;10.182;2022-09-02T09:41:58;33.30;39.00
37478;DHT22;23334;54.316;10.182;2022-09-02T09:44:36;33.20;38.20
37478;DHT22;23334;54.316;10.182;2022-09-02T09:47:05;32.30;39.60
37478;DHT22;23334;54.316;10.182;2022-09-02T09:49:32;33.60;41.40
37478;DHT22;23334;54.316;10.182;2022-09-02T09:51:58;34.50;40.10
37478;DHT22;23334;54.316;10.182;2022-09-02T09:54:25;34.80;39.80
37478;DHT22;23334;54.316;10.182;2022-09-02T09:56:51;35.30;62.60
37478;DHT22;23334;54.316;10.182;2022-09-02T09:59:41;35.80;58.20
37478;DHT22;23334;54.316;10.182;2022-09-02T10:02:19;35.30;39.00
37478;DHT22;23334;54.316;10.182;2022-09-02T10:04:45;34.30;40.20
37478;DHT22;23334;54.316;10.182;2022-09-02T10:07:11;34.40;33.60
37478;DHT22;23334;54.316;10.182;2022-09-02T10:09:37;34.10;40.50
37478;DHT22;23334;54.316;10.182;2022-09-02T10:12:07;34.70;35.10
37478;DHT22;23334;54.316;10.182;2022-09-02T10:14:46;36.10;34.70
37478;DHT22;23334;54.316;10.182;2022-09-02T10:17:37;36.90;39.00
37478;DHT22;23334;54.316;10.182;2022-09-02T10:20:37;36.00;37.90
37478;DHT22;23334;54.316;10.182;2022-09-02T10:23:24;35.60;38.10
37478;DHT22;23334;54.316;10.182;2022-09-02T10:26:45;34.80;39.40
37478;DHT22;23334;54.316;10.182;2022-09-02T10:32:21;33.60;41.20
37478;DHT22;23334;54.316;10.182;2022-09-02T10:40:15;30.90;36.90
37478;DHT22;23334;54.316;10.182;2022-09-02T10:43:00;29.90;42.50
37478;DHT22;23334;54.316;10.182;2022-09-02T10:54:06;25.40;48.30
37478;DHT22;23334;54.316;10.182;2022-09-02T10:56:44;25.40;52.20
37478;DHT22;23334;54.316;10.182;2022-09-02T10:59:20;24.50;78.70
37478;DHT22;23334;54.316;10.182;2022-09-02T11:01:55;24.50;57.90
37478;DHT22;23334;54.316;10.182;2022-09-02T11:07:04;23.80;63.30
37478;DHT22;23334;54.316;10.182;2022-09-02T11:09:44;23.30;63.60
37478;DHT22;23334;54.316;10.182;2022-09-02T11:12:21;23.50;67.50
37478;DHT22;23334;54.316;10.182;2022-09-02T11:15:17;23.30;67.00
37478;DHT22;23334;54.316;10.182;2022-09-02T11:18:00;23.40;73.60
37478;DHT22;23334;54.316;10.182;2022-09-02T11:20:42;23.30;73.60
37478;DHT22;23334;54.316;10.182;2022-09-02T11:25:54;23.20;67.70
37478;DHT22;23334;54.316;10.182;2022-09-02T11:31:11;23.20;69.10
37478;DHT22;23334;54.316;10.182;2022-09-02T11:33:59;22.80;75.00
37478;DHT22;23334;54.316;10.182;2022-09-02T11:37:24;22.80;56.70
37478;DHT22;23334;54.316;10.182;2022-09-02T11:49:01;23.20;54.50
37478;DHT22;23334;54.316;10.182;2022-09-02T11:51:31;22.90;57.90
37478;DHT22;23334;54.316;10.182;2022-09-02T11:54:00;23.00;56.30
37478;DHT22;23334;54.316;10.182;2022-09-02T11:56:34;22.90;53.60
37478;DHT22;23334;54.316;10.182;2022-09-02T11:59:00;22.60;64.20
37478;DHT22;23334;54.316;10.182;2022-09-02T12:04:23;22.90;59.20
37478;DHT22;23334;54.316;10.182;2022-09-02T12:09:52;22.60;55.50
37478;DHT22;23334;54.316;10.182;2022-09-02T12:15:15;22.50;56.40
37478;DHT22;23334;54.316;10.182;2022-09-02T12:23:04;22.60;54.00
37478;DHT22;23334;54.316;10.182;2022-09-02T12:33:38;22.30;59.50
37478;DHT22;23334;54.316;10.182;2022-09-02T12:36:06;22.40;57.50
37478;DHT22;23334;54.316;10.182;2022-09-02T12:38:34;22.60;59.50
37478;DHT22;23334;54.316;10.182;2022-09-02T12:41:12;22.60;59.30
37478;DHT22;23334;54.316;10.182;2022-09-02T12:46:44;22.70;57.60
37478;DHT22;23334;54.316;10.182;2022-09-02T12:52:13;22.80;57.40
37478;DHT22;23334;54.316;10.182;2022-09-02T12:55:02;22.50;57.90
37478;DHT22;23334;54.316;10.182;2022-09-02T12:57:38;22.30;58.60
37478;DHT22;23334;54.316;10.182;2022-09-02T13:00:04;22.20;58.70
37478;DHT22;23334;54.316;10.182;2022-09-02T13:02:40;22.10;60.10
37478;DHT22;23334;54.316;10.182;2022-09-02T13:05:24;21.90;60.50
37478;DHT22;23334;54.316;10.182;2022-09-02T13:07:59;22.00;60.40
37478;DHT22;23334;54.316;10.182;2022-09-02T13:19:09;22.30;64.50
37478;DHT22;23334;54.316;10.182;2022-09-02T13:24:54;22.60;63.30
37478;DHT22;23334;54.316;10.182;2022-09-02T13:30:23;22.50;61.40
37478;DHT22;23334;54.316;10.182;2022-09-02T13:33:05;22.40;60.50
37478;DHT22;23334;54.316;10.182;2022-09-02T13:35:35;22.60;62.80
37478;DHT22;23334;54.316;10.182;2022-09-02T13:38:01;22.10;63.40
37478;DHT22;23334;54.316;10.182;2022-09-02T13:40:35;21.80;63.20
37478;DHT22;23334;54.316;10.182;2022-09-02T13:43:03;21.50;65.10
37478;DHT22;23334;54.316;10.182;2022-09-02T13:45:32;21.40;63.90
37478;DHT22;23334;54.316;10.182;2022-09-02T13:48:07;21.50;63.80
37478;DHT22;23334;54.316;10.182;2022-09-02T13:50:33;24.00;65.80
37478;DHT22;23334;54.316;10.182;2022-09-02T13:53:00;21.50;62.70
37478;DHT22;23334;54.316;10.182;2022-09-02T13:55:28;21.50;63.50
37478;DHT22;23334;54.316;10.182;2022-09-02T13:58:07;21.30;66.20
37478;DHT22;23334;54.316;10.182;2022-09-02T14:00:44;21.70;65.10
37478;DHT22;23334;54.316;10.182;2022-09-02T14:03:12;21.30;66.50
37478;DHT22;23334;54.316;10.182;2022-09-02T14:05:43;21.90;67.10
37478;DHT22;23334;54.316;10.182;2022-09-02T14:08:19;21.50;67.80
37478;DHT22;23334;54.316;10.182;2022-09-02T14:10:46;21.30;70.90
37478;DHT22;23334;54.316;10.182;2022-09-02T14:13:14;21.20;70.80
37478;DHT22;23334;54.316;10.182;2022-09-02T14:15:40;21.20;71.30
37478;DHT22;23334;54.316;10.182;2022-09-02T14:18:13;21.80;69.60
37478;DHT22;23334;54.316;10.182;2022-09-02T14:21:02;21.90;70.90
37478;DHT22;23334;54.316;10.182;2022-09-02T14:23:37;21.80;68.30
37478;DHT22;23334;54.316;10.182;2022-09-02T14:26:04;22.00;67.70
37478;DHT22;23334;54.316;10.182;2022-09-02T14:28:33;21.60;69.20
37478;DHT22;23334;54.316;10.182;2022-09-02T14:31:05;21.70;70.30
37478;DHT22;23334;54.316;10.182;2022-09-02T14:33:42;21.70;71.00
37478;DHT22;23334;54.316;10.182;2022-09-02T14:41:27;21.50;70.10
37478;DHT22;23334;54.316;10.182;2022-09-02T14:43:57;21.40;71.30
37478;DHT22;23334;54.316;10.182;2022-09-02T14:46:28;21.20;72.10
37478;DHT22;23334;54.316;10.182;2022-09-02T14:49:04;20.90;72.70
37478;DHT22;23334;54.316;10.182;2022-09-02T14:51:37;21.30;73.80
37478;DHT22;23334;54.316;10.182;2022-09-02T14:54:05;20.90;74.10
37478;DHT22;23334;54.316;10.182;2022-09-02T14:56:51;20.90;74.40
37478;DHT22;23334;54.316;10.182;2022-09-02T14:59:18;21.30;75.80
37478;DHT22;23334;54.316;10.182;2022-09-02T15:01:47;21.20;76.10
37478;DHT22;23334;54.316;10.182;2022-09-02T15:04:14;21.20;78.90
37478;DHT22;23334;54.316;10.182;2022-09-02T15:06:41;21.20;77.00
37478;DHT22;23334;54.316;10.182;2022-09-02T15:09:07;21.30;91.90
37478;DHT22;23334;54.316;10.182;2022-09-02T15:11:32;21.10;76.90
37478;DHT22;23334;54.316;10.182;2022-09-02T15:13:58;20.90;78.30
37478;DHT22;23334;54.316;10.182;2022-09-02T15:16:24;20.80;78.70
37478;DHT22;23334;54.316;10.182;2022-09-02T15:18:49;21.10;79.30
37478;DHT22;23334;54.316;10.182;2022-09-02T15:21:15;21.50;79.30
37478;DHT22;23334;54.316;10.182;2022-09-02T15:23:41;20.60;79.80
37478;DHT22;23334;54.316;10.182;2022-09-02T15:26:07;20.80;80.60
37478;DHT22;23334;54.316;10.182;2022-09-02T15:28:33;20.70;80.30
37478;DHT22;23334;54.316;10.182;2022-09-02T15:30:59;20.70;82.00
37478;DHT22;23334;54.316;10.182;2022-09-02T15:33:26;20.60;82.40
37478;DHT22;23334;54.316;10.182;2022-09-02T15:35:52;20.40;82.40
37478;DHT22;23334;54.316;10.182;2022-09-02T15:38:17;20.50;80.00
37478;DHT22;23334;54.316;10.182;2022-09-02T15:40:43;20.20;81.70
37478;DHT22;23334;54.316;10.182;2022-09-02T15:43:10;20.20;81.50
37478;DHT22;23334;54.316;10.182;2022-09-02T15:45:43;20.60;81.70
37478;DHT22;23334;54.316;10.182;2022-09-02T15:48:11;20.10;82.30
37478;DHT22;23334;54.316;10.182;2022-09-02T15:50:36;20.50;83.90
37478;DHT22;23334;54.316;10.182;2022-09-02T15:53:02;20.50;84.50
37478;DHT22;23334;54.316;10.182;2022-09-02T15:55:31;20.10;85.10
37478;DHT22;23334;54.316;10.182;2022-09-02T15:57:57;20.40;86.90
37478;DHT22;23334;54.316;10.182;2022-09-02T16:00:23;20.00;88.30
37478;DHT22;23334;54.316;10.182;2022-09-02T16:02:50;20.30;89.60
37478;DHT22;23334;54.316;10.182;2022-09-02T16:05:16;20.00;90.50
37478;DHT22;23334;54.316;10.182;2022-09-02T16:07:42;20.20;89.80
37478;DHT22;23334;54.316;10.182;2022-09-02T16:10:08;19.80;91.40
37478;DHT22;23334;54.316;10.182;2022-09-02T16:12:34;20.30;91.60
37478;DHT22;23334;54.316;10.182;2022-09-02T16:14:59;19.80;91.20
37478;DHT22;23334;54.316;10.182;2022-09-02T16:17:25;20.10;90.80
37478;DHT22;23334;54.316;10.182;2022-09-02T16:19:50;19.90;92.20
37478;DHT22;23334;54.316;10.182;2022-09-02T16:22:16;20.00;92.00
37478;DHT22;23334;54.316;10.182;2022-09-02T16:24:41;20.00;92.60
37478;DHT22;23334;54.316;10.182;2022-09-02T16:27:07;20.00;92.90
37478;DHT22;23334;54.316;10.182;2022-09-02T16:29:34;20.10;93.40
37478;DHT22;23334;54.316;10.182;2022-09-02T16:32:02;19.50;93.50
37478;DHT22;23334;54.316;10.182;2022-09-02T16:34:27;19.90;94.10
37478;DHT22;23334;54.316;10.182;2022-09-02T16:36:53;19.40;93.80
37478;DHT22;23334;54.316;10.182;2022-09-02T16:39:19;19.60;99.90
37478;DHT22;23334;54.316;10.182;2022-09-02T16:41:47;19.20;94.40
37478;DHT22;23334;54.316;10.182;2022-09-02T16:44:17;19.30;95.00
37478;DHT22;23334;54.316;10.182;2022-09-02T16:46:45;19.30;95.40
37478;DHT22;23334;54.316;10.182;2022-09-02T16:49:13;19.50;99.90
37478;DHT22;23334;54.316;10.182;2022-09-02T16:51:46;19.10;96.70
37478;DHT22;23334;54.316;10.182;2022-09-02T16:54:13;19.30;97.40
37478;DHT22;23334;54.316;10.182;2022-09-02T16:56:39;19.30;98.30
37478;DHT22;23334;54.316;10.182;2022-09-02T16:59:06;18.90;99.10
37478;DHT22;23334;54.316;10.182;2022-09-02T17:01:33;19.20;99.70
37478;DHT22;23334;54.316;10.182;2022-09-02T17:03:59;19.10;99.90
37478;DHT22;23334;54.316;10.182;2022-09-02T17:06:26;19.00;99.90
37478;DHT22;23334;54.316;10.182;2022-09-02T17:08:51;18.70;99.90
37478;DHT22;23334;54.316;10.182;2022-09-02T17:11:25;17.40;99.90